Time;durP1;ratioP1;P1;durP2;ratioP2;P2;SDS_P1;SDS_P2;PMS_P1;PMS_P2;Temp;Humidity;BMP_temperature;BMP_pressure;BME280_temperature;BME280_humidity;BME280_pressure;Samples;Min_cycle;Max_cycle;Signal;HPM_P1;HPM_P2
2024/02/15 00:02:14;;;;;;;36.53;16.90;;;11.40;99.90;;;;;;5061902;28;20029;-66
2024/02/15 00:04:39;;;;;;;35.92;17.13;;;11.40;99.90;;;;;;5061448;28;20116;-67
2024/02/15 00:07:05;;;;;;;40.13;18.60;;;11.50;99.90;;;;;;5060966;28;20056;-64
2024/02/15 00:09:31;;;;;;;37.60;18.60;;;11.40;99.90;;;;;;5060980;28;20060;-67
2024/02/15 00:11:57;;;;;;;36.50;17.20;;;11.40;99.90;;;;;;5061504;28;20021;-67
2024/02/15 00:14:22;;;;;;;36.30;17.15;;;11.40;99.90;;;;;;5062194;28;20051;-67
2024/02/15 00:16:50;;;;;;;37.45;17.75;;;11.40;99.90;;;;;;5061772;28;20025;-66
2024/02/15 00:19:17;;;;;;;38.92;18.48;;;11.50;99.90;;;;;;5061363;28;20032;-65
2024/02/15 00:21:45;;;;;;;36.05;17.13;;;11.50;99.90;;;;;;5061616;28;20105;-65
2024/02/15 00:24:11;;;;;;;38.83;17.98;;;11.50;99.90;;;;;;5060915;28;20055;-65
2024/02/15 00:26:37;;;;;;;36.28;17.33;;;11.50;99.90;;;;;;5061807;28;20033;-66
2024/02/15 00:29:03;;;;;;;36.83;17.63;;;11.50;99.90;;;;;;5060564;28;20063;-66
2024/02/15 00:31:28;;;;;;;38.75;17.90;;;11.50;99.90;;;;;;5061142;28;20037;-66
2024/02/15 00:33:55;;;;;;;44.05;19.88;;;11.50;99.90;;;;;;5061824;28;20071;-67
2024/02/15 00:36:20;;;;;;;42.97;19.92;;;11.50;99.90;;;;;;5061525;28;20116;-66
2024/02/15 00:38:46;;;;;;;40.60;19.67;;;11.50;99.90;;;;;;5060100;28;20158;-66
2024/02/15 00:41:12;;;;;;;45.55;20.00;;;11.50;99.90;;;;;;5061504;28;20025;-68
2024/02/15 00:43:38;;;;;;;50.95;21.30;;;11.50;99.90;;;;;;5061204;28;20028;-67
2024/02/15 00:46:03;;;;;;;44.65;18.77;;;11.50;99.90;;;;;;5061353;28;20021;-66
2024/02/15 00:48:29;;;;;;;44.97;19.27;;;11.50;99.90;;;;;;5061586;28;20037;-65
2024/02/15 00:50:56;;;;;;;43.25;19.48;;;11.50;99.90;;;;;;5060160;28;20033;-68
2024/02/15 00:53:22;;;;;;;46.08;19.45;;;11.50;99.90;;;;;;5059882;28;20029;-68
2024/02/15 00:55:48;;;;;;;45.60;18.73;;;11.50;99.90;;;;;;5060329;28;20037;-65
2024/02/15 00:58:13;;;;;;;44.83;18.63;;;11.50;99.90;;;;;;5061272;28;20493;-68
2024/02/15 01:00:39;;;;;;;47.70;18.98;;;11.50;99.90;;;;;;5061039;28;20023;-67
2024/02/15 01:03:07;;;;;;;42.53;18.00;;;11.50;99.90;;;;;;5060863;28;20075;-66
2024/02/15 01:05:34;;;;;;;49.47;20.25;;;11.50;99.90;;;;;;5060802;28;20029;-68
2024/02/15 01:07:59;;;;;;;51.30;19.75;;;11.50;99.90;;;;;;5060447;28;20060;-66
2024/02/15 01:10:28;;;;;;;43.47;18.77;;;11.50;99.90;;;;;;5061420;28;20025;-66
2024/02/15 01:12:53;;;;;;;42.45;19.02;;;11.50;99.90;;;;;;5060655;28;20383;-66
2024/02/15 01:15:19;;;;;;;42.92;18.55;;;11.50;99.90;;;;;;5061217;28;20035;-67
2024/02/15 01:17:45;;;;;;;45.88;18.52;;;11.50;99.90;;;;;;5062050;28;20066;-66
2024/02/15 01:20:14;;;;;;;44.55;17.45;;;11.50;99.90;;;;;;5064892;28;20116;-67
2024/02/15 01:22:39;;;;;;;44.60;17.83;;;11.60;99.90;;;;;;5063313;28;20104;-67
2024/02/15 01:25:06;;;;;;;45.78;17.13;;;11.50;99.90;;;;;;5065049;28;20480;-67
2024/02/15 01:27:33;;;;;;;39.25;17.45;;;11.50;99.90;;;;;;5064231;28;20020;-65
2024/02/15 01:29:59;;;;;;;40.58;16.88;;;11.50;99.90;;;;;;5062878;28;20444;-67
2024/02/15 01:32:28;;;;;;;44.35;17.58;;;11.50;99.90;;;;;;5064954;28;20017;-67
2024/02/15 01:34:54;;;;;;;41.55;17.00;;;11.50;99.90;;;;;;5064165;28;20077;-69
2024/02/15 01:37:23;;;;;;;40.88;16.73;;;11.50;99.90;;;;;;5064937;28;20025;-67
2024/02/15 01:39:49;;;;;;;45.70;18.15;;;11.50;99.90;;;;;;5064720;28;20036;-69
2024/02/15 01:42:15;;;;;;;43.58;17.48;;;11.50;99.90;;;;;;5064343;28;20169;-65
2024/02/15 01:44:43;;;;;;;45.58;17.10;;;11.50;99.90;;;;;;5064494;28;20024;-65
2024/02/15 01:47:10;;;;;;;43.20;17.02;;;11.50;99.90;;;;;;5064341;28;20021;-68
2024/02/15 01:49:36;;;;;;;46.70;18.92;;;11.60;99.90;;;;;;5064103;28;20041;-68
2024/02/15 01:52:05;;;;;;;40.10;16.83;;;11.50;99.90;;;;;;5064574;28;20103;-66
2024/02/15 01:54:32;;;;;;;48.17;18.63;;;11.50;99.90;;;;;;5063498;28;20021;-68
2024/02/15 01:56:58;;;;;;;47.42;18.65;;;11.50;99.90;;;;;;5064231;28;20021;-67
2024/02/15 01:59:24;;;;;;;46.90;18.63;;;11.50;99.90;;;;;;5064481;28;20121;-66
2024/02/15 02:01:50;;;;;;;52.08;19.67;;;11.50;99.90;;;;;;5063573;28;20017;-69
2024/02/15 02:04:16;;;;;;;47.05;18.33;;;11.60;99.90;;;;;;5064295;28;20081;-67
2024/02/15 02:06:41;;;;;;;48.72;18.60;;;11.60;99.90;;;;;;5062418;28;20084;-66
2024/02/15 02:09:14;;;;;;;48.72;19.30;;;11.50;99.90;;;;;;5062084;28;20438;-68
2024/02/15 02:11:42;;;;;;;46.45;19.48;;;11.60;99.90;;;;;;5063860;28;20020;-65
2024/02/15 02:14:07;;;;;;;52.22;19.83;;;11.60;99.90;;;;;;5063703;28;20454;-66
2024/02/15 02:16:35;;;;;;;45.45;19.00;;;11.60;99.90;;;;;;5063626;28;20028;-66
2024/02/15 02:19:01;;;;;;;56.22;18.77;;;11.60;99.90;;;;;;5064085;28;20048;-64
2024/02/15 02:21:28;;;;;;;46.05;17.83;;;11.60;99.90;;;;;;5063079;28;20021;-65
2024/02/15 02:23:56;;;;;;;44.72;18.52;;;11.60;99.90;;;;;;5063620;28;20024;-66
2024/02/15 02:26:23;;;;;;;42.10;16.92;;;11.60;99.90;;;;;;5063621;28;20029;-66
2024/02/15 02:28:49;;;;;;;44.35;18.02;;;11.60;99.90;;;;;;5063456;28;20490;-66
2024/02/15 02:31:15;;;;;;;45.05;18.45;;;11.60;99.90;;;;;;5061594;28;20029;-65
2024/02/15 02:33:42;;;;;;;44.25;17.20;;;11.60;99.90;;;;;;5063795;28;20035;-65
2024/02/15 02:36:09;;;;;;;45.30;18.10;;;11.60;99.90;;;;;;5063621;28;20032;-64
2024/02/15 02:38:37;;;;;;;44.50;17.00;;;11.60;99.90;;;;;;5062415;28;20021;-67
2024/02/15 02:41:03;;;;;;;49.80;18.13;;;11.60;99.90;;;;;;5062663;28;20389;-66
2024/02/15 02:43:29;;;;;;;45.67;17.60;;;11.60;99.90;;;;;;5062537;28;20014;-67
2024/02/15 02:45:55;;;;;;;43.85;16.35;;;11.60;99.90;;;;;;5061421;28;20027;-68
2024/02/15 02:48:21;;;;;;;48.20;18.30;;;11.60;99.90;;;;;;5063153;28;20037;-66
2024/02/15 02:50:48;;;;;;;52.17;19.35;;;11.60;99.90;;;;;;5063113;28;20131;-66
2024/02/15 02:53:15;;;;;;;45.67;17.60;;;11.60;99.90;;;;;;5062170;28;20118;-67
2024/02/15 02:55:41;;;;;;;45.80;17.73;;;11.60;99.90;;;;;;5062800;28;20025;-67
2024/02/15 02:58:09;;;;;;;48.30;18.20;;;11.60;99.90;;;;;;5062864;28;20033;-66
2024/02/15 03:00:35;;;;;;;50.42;19.33;;;11.60;99.90;;;;;;5062389;28;20036;-65
2024/02/15 03:03:02;;;;;;;55.75;19.95;;;11.60;99.90;;;;;;5061286;28;20552;-66
2024/02/15 03:05:29;;;;;;;51.28;19.30;;;11.60;99.90;;;;;;5062190;28;20025;-68
2024/02/15 03:07:55;;;;;;;51.58;19.90;;;11.60;99.90;;;;;;5062349;28;20477;-66
2024/02/15 03:10:20;;;;;;;48.05;18.17;;;11.60;99.90;;;;;;5062735;28;20048;-67
2024/02/15 03:12:49;;;;;;;44.72;18.50;;;11.60;99.90;;;;;;5062519;28;20021;-68
2024/02/15 03:15:16;;;;;;;50.78;19.98;;;11.60;99.90;;;;;;5062327;28;20053;-69
2024/02/15 03:17:43;;;;;;;48.83;18.23;;;11.60;99.90;;;;;;5062371;28;20040;-68
2024/02/15 03:20:23;;;;;;;49.58;19.77;;;11.60;99.90;;;;;;5061816;28;20025;-69
2024/02/15 03:22:56;;;;;;;49.42;19.48;;;11.60;99.90;;;;;;5062440;28;20516;-68
2024/02/15 03:25:25;;;;;;;48.28;19.48;;;11.60;99.90;;;;;;5062362;28;20021;-67
2024/02/15 03:27:55;;;;;;;51.75;20.60;;;11.60;99.90;;;;;;5060063;28;20127;-67
2024/02/15 03:30:22;;;;;;;47.95;19.02;;;11.60;99.90;;;;;;5062379;28;20091;-67
2024/02/15 03:32:51;;;;;;;50.25;19.02;;;11.60;99.90;;;;;;5062198;28;20032;-70
2024/02/15 03:35:17;;;;;;;46.63;19.23;;;11.60;99.90;;;;;;5061661;28;20028;-68
2024/02/15 03:37:43;;;;;;;46.15;17.63;;;11.60;99.90;;;;;;5061910;28;20049;-66
2024/02/15 03:40:09;;;;;;;49.45;18.92;;;11.60;99.90;;;;;;5062090;28;20025;-66
2024/02/15 03:42:36;;;;;;;52.15;18.90;;;11.60;99.90;;;;;;5061465;28;20028;-64
2024/02/15 03:45:03;;;;;;;48.08;19.05;;;11.60;99.90;;;;;;5061795;28;20021;-64
2024/02/15 03:47:29;;;;;;;53.03;19.42;;;11.60;99.90;;;;;;5061960;28;20032;-64
2024/02/15 03:49:55;;;;;;;44.03;17.50;;;11.60;99.90;;;;;;5061685;28;20037;-67
2024/02/15 03:52:21;;;;;;;42.08;17.92;;;11.60;99.90;;;;;;5062210;28;20025;-66
2024/02/15 03:54:47;;;;;;;44.95;17.05;;;11.60;99.90;;;;;;5061508;28;20025;-67
2024/02/15 03:57:13;;;;;;;44.08;16.67;;;11.60;99.90;;;;;;5062318;28;20388;-67
2024/02/15 03:59:40;;;;;;;45.40;17.67;;;11.60;99.90;;;;;;5058737;28;20025;-65
2024/02/15 04:02:12;;;;;;;48.53;19.75;;;11.60;99.90;;;;;;5061433;28;20397;-65
2024/02/15 04:04:38;;;;;;;48.08;19.00;;;11.60;99.90;;;;;;5062028;28;20112;-67
2024/02/15 04:07:03;;;;;;;43.92;18.02;;;11.60;99.90;;;;;;5061801;28;20049;-65
2024/02/15 04:09:29;;;;;;;51.47;19.30;;;11.60;99.90;;;;;;5061564;28;20044;-64
2024/02/15 04:11:57;;;;;;;50.95;20.00;;;11.60;99.90;;;;;;5062040;28;20115;-68
2024/02/15 04:14:23;;;;;;;46.35;20.05;;;11.60;99.90;;;;;;5061834;28;20036;-66
2024/02/15 04:16:48;;;;;;;53.20;20.33;;;11.60;99.90;;;;;;5061455;28;20446;-66
2024/02/15 04:19:15;;;;;;;54.08;21.10;;;11.60;99.90;;;;;;5061445;28;20021;-65
2024/02/15 04:21:40;;;;;;;55.63;21.23;;;11.60;99.90;;;;;;5059323;28;20025;-66
2024/02/15 04:24:06;;;;;;;51.13;20.45;;;11.60;99.90;;;;;;5060284;28;20039;-65
2024/02/15 04:26:33;;;;;;;57.13;21.80;;;11.60;99.90;;;;;;5059636;28;20060;-67
2024/02/15 04:28:59;;;;;;;55.50;21.30;;;11.60;99.90;;;;;;5060474;28;20123;-65
2024/02/15 04:31:27;;;;;;;56.15;20.88;;;11.60;99.90;;;;;;5060126;28;20036;-68
2024/02/15 04:33:54;;;;;;;67.80;22.83;;;11.60;99.90;;;;;;5061773;28;20069;-66
2024/02/15 04:36:23;;;;;;;55.22;20.52;;;11.60;99.90;;;;;;5060515;28;20036;-65
2024/02/15 04:38:50;;;;;;;60.63;21.73;;;11.60;99.90;;;;;;5058981;28;20044;-65
2024/02/15 04:41:25;;;;;;;67.50;22.65;;;11.60;99.90;;;;;;5061351;28;20022;-67
2024/02/15 04:43:52;;;;;;;58.45;21.67;;;11.60;99.90;;;;;;5060118;28;20029;-67
2024/02/15 04:46:21;;;;;;;66.28;21.50;;;11.50;99.90;;;;;;5060968;28;20021;-67
2024/02/15 04:48:50;;;;;;;64.03;22.83;;;11.50;99.90;;;;;;5059329;28;20092;-66
2024/02/15 04:51:21;;;;;;;51.28;19.55;;;11.50;99.90;;;;;;5060996;28;20025;-66
2024/02/15 04:53:48;;;;;;;52.45;19.35;;;11.50;99.90;;;;;;5063927;28;20028;-68
2024/02/15 04:56:13;;;;;;;52.05;18.67;;;11.50;99.90;;;;;;5064758;28;20031;-65
2024/02/15 04:58:47;;;;;;;49.80;20.70;;;11.50;99.90;;;;;;5064079;28;20048;-67
2024/02/15 05:01:16;;;;;;;45.90;18.75;;;11.50;99.90;;;;;;5065439;28;20089;-66
2024/02/15 05:03:45;;;;;;;46.70;18.58;;;11.50;99.90;;;;;;5065266;28;20073;-66
2024/02/15 05:06:14;;;;;;;48.47;18.35;;;11.50;99.90;;;;;;5063182;28;20048;-66
2024/02/15 05:08:42;;;;;;;44.55;17.98;;;11.50;99.90;;;;;;5064930;28;20045;-68
2024/02/15 05:11:17;;;;;;;45.58;18.60;;;11.50;99.90;;;;;;5064976;28;20462;-65
2024/02/15 05:13:44;;;;;;;45.00;18.17;;;11.50;99.90;;;;;;5064844;28;20016;-65
2024/02/15 05:16:10;;;;;;;50.35;20.65;;;11.50;99.90;;;;;;5063993;28;20025;-66
2024/02/15 05:18:36;;;;;;;54.80;19.92;;;11.50;99.90;;;;;;5064824;28;20032;-65
2024/02/15 05:21:03;;;;;;;44.88;18.60;;;11.50;99.90;;;;;;5064885;28;20025;-65
2024/02/15 05:23:28;;;;;;;47.47;18.85;;;11.50;99.90;;;;;;5065241;28;20063;-68
2024/02/15 05:25:56;;;;;;;43.75;17.60;;;11.50;99.90;;;;;;5065217;28;20021;-65
2024/02/15 05:28:26;;;;;;;45.67;18.35;;;11.50;99.90;;;;;;5064835;28;20033;-65
2024/02/15 05:31:12;;;;;;;44.38;17.50;;;11.50;99.90;;;;;;5065078;28;20035;-67
2024/02/15 05:33:43;;;;;;;48.08;18.08;;;11.50;99.90;;;;;;5064910;28;20506;-65
2024/02/15 05:36:13;;;;;;;54.72;19.63;;;11.50;99.90;;;;;;5064328;28;20462;-66
2024/02/15 05:38:41;;;;;;;52.63;19.33;;;11.40;99.90;;;;;;5064656;28;20044;-66
2024/02/15 05:41:07;;;;;;;48.78;18.30;;;11.50;99.90;;;;;;5064118;28;20043;-66
2024/02/15 05:43:36;;;;;;;58.88;20.88;;;11.40;99.90;;;;;;5064530;28;20025;-68
2024/02/15 05:46:03;;;;;;;55.90;20.63;;;11.40;99.90;;;;;;5064570;28;20061;-66
2024/02/15 05:48:29;;;;;;;57.65;21.00;;;11.40;99.90;;;;;;5063495;28;20064;-66
2024/02/15 05:50:59;;;;;;;58.70;19.80;;;11.40;99.90;;;;;;5064669;28;20029;-65
2024/02/15 05:53:25;;;;;;;58.45;21.17;;;11.40;99.90;;;;;;5064029;28;20377;-64
2024/02/15 05:55:50;;;;;;;62.88;19.85;;;11.40;99.90;;;;;;5061274;28;20029;-64
2024/02/15 05:58:16;;;;;;;64.13;21.73;;;11.40;99.90;;;;;;5063946;28;20028;-65
2024/02/15 06:00:44;;;;;;;65.68;22.33;;;11.40;99.90;;;;;;5064412;28;20053;-65
2024/02/15 06:03:12;;;;;;;70.00;22.60;;;11.40;99.90;;;;;;5063905;28;20021;-66
2024/02/15 06:05:39;;;;;;;64.82;22.75;;;11.40;99.90;;;;;;5062429;28;20029;-65
2024/02/15 06:08:05;;;;;;;75.47;23.55;;;11.40;99.90;;;;;;5059241;28;20099;-64
2024/02/15 06:10:31;;;;;;;75.03;23.73;;;11.40;99.90;;;;;;5063970;28;20041;-66
2024/02/15 06:12:59;;;;;;;80.88;24.92;;;11.40;99.90;;;;;;5063544;28;20031;-68
2024/02/15 06:15:25;;;;;;;82.15;26.08;;;11.40;99.90;;;;;;5064279;28;20079;-68
2024/02/15 06:17:50;;;;;;;82.30;25.38;;;11.40;99.90;;;;;;5064120;28;20464;-66
2024/02/15 06:20:21;;;;;;;78.25;24.38;;;11.40;99.90;;;;;;5064050;28;20028;-67
2024/02/15 06:22:47;;;;;;;81.30;24.73;;;11.40;99.90;;;;;;5061148;28;20064;-65
2024/02/15 06:25:14;;;;;;;80.25;24.38;;;11.40;99.90;;;;;;5061327;28;21148;-69
2024/02/15 06:27:42;;;;;;;126.43;29.08;;;11.40;99.90;;;;;;5061469;28;20024;-67
2024/02/15 06:41:09;;;;;;;144.25;31.02;;;11.30;99.90;;;;;;5062208;28;20040;-69
2024/02/15 06:43:35;;;;;;;243.82;36.55;;;11.30;99.90;;;;;;5062232;28;20025;-65
2024/02/15 06:46:02;;;;;;;208.48;33.85;;;11.30;99.90;;;;;;5061936;28;20101;-66
2024/02/15 06:48:28;;;;;;;196.48;33.40;;;11.30;99.90;;;;;;5059443;28;20037;-66
2024/02/15 06:50:54;;;;;;;283.67;36.22;;;11.30;99.90;;;;;;5062804;28;20434;-65
2024/02/15 06:53:20;;;;;;;145.13;29.52;;;11.30;99.90;;;;;;5062562;28;20029;-66
2024/02/15 06:55:48;;;;;;;160.13;31.10;;;11.30;99.90;;;;;;5063237;28;20025;-66
2024/02/15 06:58:15;;;;;;;238.30;35.17;;;11.30;99.90;;;;;;5063458;28;20021;-65
2024/02/15 07:00:42;;;;;;;211.93;33.50;;;11.30;99.90;;;;;;5062461;28;20126;-68
2024/02/15 07:03:08;;;;;;;148.02;28.58;;;11.30;99.90;;;;;;5063136;28;20100;-67
2024/02/15 07:05:34;;;;;;;135.73;30.40;;;11.30;99.90;;;;;;5062897;28;20024;-65
2024/02/15 07:08:00;;;;;;;116.95;26.95;;;11.30;99.90;;;;;;5062619;28;20045;-66
2024/02/15 07:10:26;;;;;;;116.22;28.95;;;11.30;99.90;;;;;;5063160;28;20025;-66
2024/02/15 07:12:51;;;;;;;126.30;30.48;;;11.30;99.90;;;;;;5063311;28;20029;-67
2024/02/15 07:15:17;;;;;;;111.28;28.67;;;11.30;99.90;;;;;;5062572;28;20035;-64
2024/02/15 07:17:43;;;;;;;123.63;29.95;;;11.30;99.90;;;;;;5063128;28;20041;-68
2024/02/15 07:20:11;;;;;;;125.53;30.17;;;11.40;99.90;;;;;;5062040;28;20033;-68
2024/02/15 07:22:38;;;;;;;113.53;28.73;;;11.40;99.90;;;;;;5061934;28;20028;-65
2024/02/15 07:25:04;;;;;;;107.25;27.42;;;11.40;99.90;;;;;;5062555;28;20017;-68
2024/02/15 07:27:30;;;;;;;110.30;28.48;;;11.40;99.90;;;;;;5058100;28;20017;-66
2024/02/15 07:29:56;;;;;;;129.40;31.52;;;11.40;99.90;;;;;;5060822;28;20048;-67
2024/02/15 07:32:21;;;;;;;118.85;30.63;;;11.40;99.90;;;;;;5060642;28;20039;-64
2024/02/15 07:34:47;;;;;;;107.90;28.50;;;11.40;99.90;;;;;;5062139;28;20029;-66
2024/02/15 07:37:15;;;;;;;108.05;30.08;;;11.40;99.90;;;;;;5062279;28;20028;-66
2024/02/15 07:39:41;;;;;;;102.18;28.77;;;11.50;99.90;;;;;;5062732;28;20031;-65
2024/02/15 07:42:08;;;;;;;108.15;27.10;;;11.50;99.90;;;;;;5061932;28;20097;-69
2024/02/15 07:44:36;;;;;;;111.45;28.70;;;11.50;99.90;;;;;;5060660;28;20021;-67
2024/02/15 07:47:02;;;;;;;105.45;28.85;;;11.50;99.90;;;;;;5056266;28;20135;-66
2024/02/15 07:49:28;;;;;;;101.03;28.02;;;11.50;99.90;;;;;;5059259;28;20060;-66
2024/02/15 07:51:54;;;;;;;97.18;28.58;;;11.50;99.90;;;;;;5062083;28;20017;-67
2024/02/15 07:54:23;;;;;;;98.45;28.40;;;11.50;99.90;;;;;;5060948;28;20044;-67
2024/02/15 07:56:48;;;;;;;107.47;29.30;;;11.50;99.90;;;;;;5060932;28;20029;-67
2024/02/15 07:59:18;;;;;;;96.60;29.17;;;11.50;99.90;;;;;;5059111;28;20063;-67
2024/02/15 08:01:47;;;;;;;99.45;28.83;;;11.60;99.90;;;;;;5058853;28;20021;-67
2024/02/15 08:04:13;;;;;;;100.90;30.23;;;11.60;99.90;;;;;;5057202;28;20131;-66
2024/02/15 08:06:38;;;;;;;101.88;30.52;;;11.60;99.90;;;;;;5060714;28;20033;-66
2024/02/15 08:09:12;;;;;;;97.63;30.35;;;11.60;99.90;;;;;;5060503;28;20040;-67
2024/02/15 08:11:39;;;;;;;103.75;31.20;;;11.60;99.90;;;;;;5061573;28;20071;-65
2024/02/15 08:14:08;;;;;;;108.78;33.92;;;11.70;99.90;;;;;;5061007;28;20068;-65
2024/02/15 08:16:34;;;;;;;103.65;32.55;;;11.70;99.90;;;;;;5061276;28;20043;-67
2024/02/15 08:19:00;;;;;;;102.47;34.00;;;11.70;99.90;;;;;;5061138;28;20017;-68
2024/02/15 08:21:27;;;;;;;98.45;33.15;;;11.70;99.90;;;;;;5059945;28;20450;-66
2024/02/15 08:23:52;;;;;;;101.35;33.63;;;11.80;99.90;;;;;;5061743;28;20456;-69
2024/02/15 08:26:18;;;;;;;92.90;33.47;;;11.70;99.90;;;;;;5059881;28;20036;-67
2024/02/15 08:28:43;;;;;;;95.72;32.97;;;11.70;99.90;;;;;;5059599;28;20043;-66
2024/02/15 08:31:11;;;;;;;90.10;31.70;;;11.80;99.90;;;;;;5060784;28;20029;-67
2024/02/15 08:33:38;;;;;;;87.85;31.70;;;11.80;99.90;;;;;;5057527;28;20032;-64
2024/02/15 08:36:05;;;;;;;91.03;32.65;;;11.80;99.90;;;;;;5059455;28;20055;-66
2024/02/15 08:38:31;;;;;;;80.78;29.73;;;11.80;99.90;;;;;;5055115;28;20021;-66
2024/02/15 08:40:56;;;;;;;89.10;33.30;;;11.80;99.90;;;;;;5059603;28;20079;-67
2024/02/15 08:43:22;;;;;;;83.57;31.45;;;11.90;99.90;;;;;;5059650;28;20036;-65
2024/02/15 08:45:48;;;;;;;86.25;32.10;;;11.80;99.90;;;;;;5057801;28;20025;-67
2024/02/15 08:48:13;;;;;;;82.07;30.70;;;11.90;99.90;;;;;;5056359;28;20025;-66
2024/02/15 08:50:41;;;;;;;85.00;32.05;;;11.90;99.90;;;;;;5058717;28;20021;-68
2024/02/15 08:53:07;;;;;;;89.95;33.70;;;11.90;99.90;;;;;;5059262;28;20036;-67
2024/02/15 08:55:35;;;;;;;84.25;32.05;;;11.90;99.90;;;;;;5061625;28;20021;-66
2024/02/15 08:58:02;;;;;;;76.55;32.28;;;11.90;99.90;;;;;;5059685;28;20021;-66
2024/02/15 09:00:28;;;;;;;87.75;32.53;;;11.90;99.90;;;;;;5058915;28;20041;-65
2024/02/15 09:02:54;;;;;;;82.80;31.45;;;11.90;99.90;;;;;;5061188;28;20022;-67
2024/02/15 09:05:22;;;;;;;81.88;30.48;;;11.90;99.90;;;;;;5061563;28;20473;-66
2024/02/15 09:07:48;;;;;;;80.55;31.13;;;11.90;99.90;;;;;;5060717;28;20109;-65
2024/02/15 09:10:14;;;;;;;76.82;29.77;;;11.90;99.90;;;;;;5061621;28;20041;-65
2024/02/15 09:12:42;;;;;;;72.38;28.45;;;11.90;99.90;;;;;;5059474;28;20448;-66
2024/02/15 09:15:08;;;;;;;76.82;31.02;;;11.90;99.90;;;;;;5055673;28;20034;-66
2024/02/15 09:17:38;;;;;;;67.50;27.98;;;11.90;99.90;;;;;;5060552;28;20021;-65
2024/02/15 09:20:12;;;;;;;83.70;31.90;;;11.90;99.90;;;;;;5059763;28;20053;-67
2024/02/15 09:22:37;;;;;;;79.90;30.83;;;11.90;99.90;;;;;;5060073;28;20037;-66
2024/02/15 09:25:03;;;;;;;81.40;30.35;;;11.90;99.90;;;;;;5055469;28;20025;-66
2024/02/15 09:27:29;;;;;;;81.70;28.83;;;11.90;99.90;;;;;;5057916;28;20028;-65
2024/02/15 09:29:55;;;;;;;84.80;30.83;;;11.90;99.90;;;;;;5056359;28;20041;-65
2024/02/15 09:32:22;;;;;;;82.35;31.90;;;11.90;99.90;;;;;;5058915;28;20022;-68
2024/02/15 09:34:48;;;;;;;83.00;32.88;;;11.90;99.90;;;;;;5058120;28;20085;-67
2024/02/15 09:37:16;;;;;;;88.97;33.33;;;12.00;99.90;;;;;;5059344;28;20025;-67
2024/02/15 09:39:42;;;;;;;92.22;34.92;;;12.00;99.90;;;;;;5056796;28;20078;-67
2024/02/15 09:42:07;;;;;;;95.25;35.97;;;12.00;99.90;;;;;;5061069;28;20100;-65
2024/02/15 09:44:33;;;;;;;98.60;36.05;;;12.00;99.90;;;;;;5062554;28;20049;-66
2024/02/15 09:47:06;;;;;;;90.22;32.22;;;12.00;99.90;;;;;;5062168;28;20108;-66
2024/02/15 09:49:36;;;;;;;104.50;36.65;;;12.00;99.90;;;;;;5062600;28;20049;-65
2024/02/15 09:52:04;;;;;;;106.97;38.03;;;12.00;99.90;;;;;;5064913;28;20037;-65
2024/02/15 09:54:30;;;;;;;105.65;37.28;;;12.00;99.90;;;;;;5061692;28;20085;-65
2024/02/15 09:57:00;;;;;;;105.68;38.60;;;12.00;99.90;;;;;;5061626;28;20074;-68
2024/02/15 09:59:26;;;;;;;99.32;35.38;;;12.00;99.90;;;;;;5059500;28;20028;-66
2024/02/15 10:01:58;;;;;;;99.05;38.60;;;12.00;99.90;;;;;;5063760;28;20032;-65
2024/02/15 10:04:25;;;;;;;122.78;38.47;;;12.00;99.90;;;;;;5053993;28;20065;-65
2024/02/15 10:06:51;;;;;;;98.85;34.42;;;11.90;99.90;;;;;;5060991;28;20037;-69
2024/02/15 10:09:30;;;;;;;112.78;40.25;;;11.90;99.90;;;;;;5063384;28;20045;-64
2024/02/15 10:12:03;;;;;;;118.88;39.35;;;11.90;99.90;;;;;;5062619;28;20472;-65
2024/02/15 10:14:29;;;;;;;109.70;40.15;;;11.90;99.90;;;;;;5062855;28;20036;-67
2024/02/15 10:16:56;;;;;;;115.63;39.97;;;11.90;99.90;;;;;;5057803;28;20037;-66
2024/02/15 10:19:25;;;;;;;128.13;40.35;;;12.00;99.90;;;;;;5059218;28;20025;-66
2024/02/15 10:21:55;;;;;;;121.05;41.17;;;12.00;99.90;;;;;;5059860;28;20017;-66
2024/02/15 10:24:23;;;;;;;120.68;40.58;;;11.90;99.90;;;;;;5060789;28;20029;-69
2024/02/15 10:26:48;;;;;;;127.10;41.67;;;11.90;99.90;;;;;;5063549;28;20025;-66
2024/02/15 10:29:17;;;;;;;129.27;43.92;;;12.00;99.90;;;;;;5061445;28;20045;-66
2024/02/15 10:31:56;;;;;;;134.82;43.20;;;12.00;99.90;;;;;;5057865;28;20036;-67
2024/02/15 10:34:23;;;;;;;126.80;40.75;;;12.00;99.90;;;;;;5062004;28;20040;-67
2024/02/15 10:36:49;;;;;;;108.57;35.85;;;12.00;99.90;;;;;;5063245;28;20024;-66
2024/02/15 10:39:19;;;;;;;119.63;39.08;;;12.00;99.90;;;;;;5061417;28;20057;-68
2024/02/15 10:41:57;;;;;;;124.38;41.15;;;12.00;99.90;;;;;;5062409;28;20725;-68
2024/02/15 10:44:25;;;;;;;136.63;43.38;;;12.00;99.90;;;;;;5062243;28;20492;-68
2024/02/15 10:46:52;;;;;;;154.25;43.78;;;12.00;99.90;;;;;;5061513;28;20105;-67
2024/02/15 10:49:22;;;;;;;172.50;45.45;;;12.00;99.90;;;;;;5061739;28;20028;-66
2024/02/15 10:51:58;;;;;;;175.18;44.95;;;12.00;99.90;;;;;;5058406;28;20052;-67
2024/02/15 10:54:34;;;;;;;154.63;42.58;;;12.00;99.90;;;;;;5062730;28;20473;-68
2024/02/15 10:57:04;;;;;;;137.68;39.30;;;12.00;99.90;;;;;;5061770;28;20029;-67
2024/02/15 10:59:37;;;;;;;134.00;41.40;;;12.00;99.90;;;;;;5059160;28;20223;-67
2024/02/15 11:02:25;;;;;;;131.87;41.03;;;12.00;99.90;;;;;;5059759;28;20075;-66
2024/02/15 11:04:56;;;;;;;124.20;38.78;;;12.00;99.90;;;;;;5061309;28;20260;-66
2024/02/15 11:07:25;;;;;;;111.68;39.42;;;12.00;99.90;;;;;;5057003;28;20049;-65
2024/02/15 11:09:51;;;;;;;104.05;36.03;;;12.00;99.90;;;;;;5062630;28;20072;-66
2024/02/15 11:12:17;;;;;;;110.35;36.78;;;12.00;99.90;;;;;;5057938;28;20074;-66
2024/02/15 11:14:46;;;;;;;114.93;38.95;;;12.00;99.90;;;;;;5056955;28;20457;-68
2024/02/15 11:17:43;;;;;;;105.65;37.13;;;12.00;99.90;;;;;;5060093;28;20485;-67
2024/02/15 11:20:11;;;;;;;114.68;39.28;;;12.00;99.90;;;;;;5061650;28;20021;-66
2024/02/15 11:22:38;;;;;;;109.57;37.13;;;12.00;99.90;;;;;;5060339;28;20052;-68
2024/02/15 11:25:15;;;;;;;110.10;38.70;;;12.00;99.90;;;;;;5059113;28;20038;-67
2024/02/15 11:27:41;;;;;;;116.18;40.38;;;12.00;99.90;;;;;;5056668;28;20029;-66
2024/02/15 11:30:31;;;;;;;110.07;38.90;;;12.00;99.90;;;;;;5060138;28;20087;-66
2024/02/15 11:33:21;;;;;;;99.45;36.65;;;12.00;99.90;;;;;;5058634;28;20017;-70
2024/02/15 11:36:07;;;;;;;113.95;39.55;;;12.00;99.90;;;;;;5057741;28;20037;-67
2024/02/15 11:38:52;;;;;;;102.63;39.72;;;12.00;99.90;;;;;;5061483;28;20052;-71
2024/02/15 11:41:20;;;;;;;97.00;38.70;;;12.00;99.90;;;;;;5061402;28;20036;-64
2024/02/15 11:43:58;;;;;;;105.28;38.63;;;12.00;99.90;;;;;;5061142;28;20032;-65
2024/02/15 11:46:25;;;;;;;106.05;41.05;;;12.00;99.90;;;;;;5061244;28;20025;-66
2024/02/15 11:48:56;;;;;;;108.20;39.30;;;12.00;99.90;;;;;;5059888;28;20042;-66
2024/02/15 11:51:42;;;;;;;96.55;39.85;;;12.00;99.90;;;;;;5060726;28;20032;-68
2024/02/15 11:54:12;;;;;;;105.30;41.45;;;12.00;99.90;;;;;;5060508;28;20025;-67
2024/02/15 11:56:43;;;;;;;101.53;40.90;;;12.00;99.90;;;;;;5058744;28;20042;-66
2024/02/15 11:59:18;;;;;;;104.75;41.55;;;12.10;99.90;;;;;;5060930;28;20135;-67
2024/02/15 12:21:07;;;;;;;86.82;37.83;;;12.10;99.90;;;;;;5059321;28;20116;-67
2024/02/15 12:23:35;;;;;;;90.10;40.13;;;12.20;99.90;;;;;;5056019;28;20041;-65
2024/02/15 12:26:03;;;;;;;87.88;37.13;;;12.10;99.90;;;;;;5058698;28;20031;-67
2024/02/15 12:28:30;;;;;;;89.18;39.33;;;12.20;99.90;;;;;;5055892;28;20465;-67
2024/02/15 12:30:57;;;;;;;77.68;36.53;;;12.20;99.90;;;;;;5054919;28;20033;-66
2024/02/15 12:33:22;;;;;;;80.75;36.40;;;12.20;99.90;;;;;;5058438;28;20043;-67
2024/02/15 12:35:50;;;;;;;82.72;36.63;;;12.20;99.90;;;;;;5059776;28;20029;-69
2024/02/15 12:38:16;;;;;;;81.22;35.85;;;12.20;99.90;;;;;;5057440;28;20048;-67
2024/02/15 12:40:42;;;;;;;84.85;36.28;;;12.20;99.90;;;;;;5060607;28;20032;-68
2024/02/15 12:43:08;;;;;;;79.60;35.45;;;12.20;99.90;;;;;;5059334;28;20021;-64
2024/02/15 12:45:42;;;;;;;71.35;32.88;;;12.20;99.90;;;;;;5060107;28;20021;-68
2024/02/15 12:48:10;;;;;;;81.10;34.75;;;12.20;99.90;;;;;;5060849;28;20737;-66
2024/02/15 12:50:36;;;;;;;64.78;32.38;;;12.20;99.90;;;;;;5057367;28;20076;-65
2024/02/15 12:53:02;;;;;;;72.88;34.25;;;12.20;99.90;;;;;;5056674;28;20059;-66
2024/02/15 12:55:34;;;;;;;71.28;32.08;;;12.20;99.90;;;;;;5056792;28;20055;-69
2024/02/15 12:58:03;;;;;;;67.15;33.30;;;12.20;99.90;;;;;;5059258;28;20031;-65